»·PEaware :: N5077J KVCV-KBFL

N5077J :: KVCV-KBFL

FLIGHT INFORMATION

Flight Status: Arrived
Operator: Privately registered:
United States
More flights under this callsign
Pilot: Mike C. (16705)
Aircraft: CESSNA 310
(C310)
More flights by this aircraft type
Origin: KVCV Socal Logistics
United States
Destination: KBFL Meadows
United States
More flights between these airports :: More routes between these airports
Route: +PMD FASTO2
File this flight plan on PilotEdge
Remarks: RMK / SIMBRIEF
Altitude:
(Current/Filed)
10,000ft
Speed:
(Current/Filed)
224kts
Departed: 19-Aug-19 05:24 PM
Arrived: 19-Aug-19 06:03 PM
Distance/Time
Traveled:
97nm/0:38
Distance/Time
To Go:
Arrived

Flight Plot

Page will automatically refresh every two minutes.


Map Options




Map Legend


Flown Route
Filed Route
Departure Airport
Arrival Airport
Navaid (VOR, NDB)
Fix

Horizontal Profiles

Position Reports

Time Latitude Longitude Heading Altitude Ground
Speed
19-Aug-19 16:57 34.588333 -117.376341 313 2887ft 0kts
19-Aug-19 16:58 34.588333 -117.376341 313 2887ft 0kts
19-Aug-19 16:59 34.588333 -117.376341 313 2887ft 0kts
19-Aug-19 17:01 34.588333 -117.376341 313 2887ft 0kts
19-Aug-19 17:02 34.588333 -117.376341 313 2887ft 0kts
19-Aug-19 17:03 34.588333 -117.376341 313 2887ft 0kts
19-Aug-19 17:04 34.588333 -117.376341 313 2887ft 0kts
19-Aug-19 17:05 34.588333 -117.376341 313 2887ft 0kts
19-Aug-19 17:06 34.588358 -117.376369 319 2887ft 0kts
19-Aug-19 17:07 34.588362 -117.376374 319 2887ft 0kts
19-Aug-19 17:08 34.588362 -117.376374 319 2887ft 0kts
19-Aug-19 17:09 34.588362 -117.376374 319 2887ft 0kts
19-Aug-19 17:10 34.588362 -117.376374 319 2887ft 0kts
19-Aug-19 17:11 34.588362 -117.376374 319 2887ft 0kts
19-Aug-19 17:12 34.588362 -117.376374 319 2887ft 0kts
19-Aug-19 17:13 34.588362 -117.376374 319 2887ft 0kts
19-Aug-19 17:14 34.588398 -117.376406 326 2887ft 0kts
19-Aug-19 17:15 34.589311 -117.376338 26 2887ft 6kts
19-Aug-19 17:16 34.591094 -117.374364 51 2887ft 10kts
19-Aug-19 17:17 34.593030 -117.371202 92 2887ft 13kts
19-Aug-19 17:18 34.593615 -117.367634 8 2887ft 5kts
19-Aug-19 17:19 34.597318 -117.367056 11 2888ft 19kts
19-Aug-19 17:20 34.599186 -117.366669 351 2887ft 0kts
19-Aug-19 17:20 34.599190 -117.366670 350 2887ft 0kts
19-Aug-19 17:22 34.599200 -117.366671 349 2887ft 0kts
19-Aug-19 17:22 34.599813 -117.366773 356 2887ft 8kts
19-Aug-19 17:24 34.583813 -117.387415 245 3414ft 129kts
19-Aug-19 17:25 34.582083 -117.437051 269 4238ft 161kts
19-Aug-19 17:25 34.581711 -117.481038 269 4967ft 151kts
19-Aug-19 17:27 34.581787 -117.542760 277 5726ft 158kts
19-Aug-19 17:27 34.586638 -117.586112 277 6466ft 153kts
19-Aug-19 17:28 34.591731 -117.637429 276 7365ft 151kts
19-Aug-19 17:29 34.596593 -117.688181 275 8263ft 151kts
19-Aug-19 17:30 34.601431 -117.738893 275 9161ft 151kts
19-Aug-19 17:31 34.606275 -117.789969 275 10061ft 152kts
19-Aug-19 17:32 34.611059 -117.840913 274 10954ft 150kts
19-Aug-19 17:33 34.615747 -117.891040 273 11846ft 149kts
19-Aug-19 17:34 34.620414 -117.941123 274 12512ft 161kts
19-Aug-19 17:35 34.644678 -117.995496 296 12191ft 203kts
19-Aug-19 17:36 34.670663 -118.057208 295 12179ft 205kts
19-Aug-19 17:37 34.697487 -118.118238 309 12187ft 206kts
19-Aug-19 17:38 34.739651 -118.166329 317 12171ft 208kts
19-Aug-19 17:39 34.781212 -118.215514 313 12135ft 208kts
19-Aug-19 17:40 34.821305 -118.266276 312 12101ft 208kts
19-Aug-19 17:41 34.861202 -118.317139 312 12066ft 207kts
19-Aug-19 17:42 34.900885 -118.367807 312 12045ft 206kts
19-Aug-19 17:43 34.940285 -118.418185 312 12045ft 205kts
19-Aug-19 17:44 34.979793 -118.468758 312 12046ft 205kts
19-Aug-19 17:45 35.019150 -118.519209 312 12046ft 204kts
19-Aug-19 17:46 35.059277 -118.570676 312 11765ft 214kts
19-Aug-19 17:47 35.100614 -118.624259 312 11371ft 217kts
19-Aug-19 17:48 35.141798 -118.677781 312 11054ft 212kts
19-Aug-19 17:49 35.182836 -118.730745 311 10542ft 218kts
19-Aug-19 17:50 35.222275 -118.786964 307 9969ft 219kts
19-Aug-19 17:51 35.258503 -118.844590 306 9346ft 206kts
19-Aug-19 17:52 35.296056 -118.894335 315 8424ft 187kts
19-Aug-19 17:53 35.331824 -118.936830 315 7506ft 173kts
19-Aug-19 17:54 35.366016 -118.977021 315 6596ft 168kts
19-Aug-19 17:55 35.399572 -119.016321 315 5692ft 166kts
19-Aug-19 17:56 35.432835 -119.055818 312 4784ft 165kts
19-Aug-19 17:57 35.415240 -119.095350 179 4043ft 152kts
19-Aug-19 17:58 35.386898 -119.061307 129 3529ft 154kts
19-Aug-19 17:59 35.378828 -119.016275 43 2874ft 152kts
19-Aug-19 18:00 35.409696 -119.027064 313 1870ft 99kts
19-Aug-19 18:01 35.426011 -119.046865 320 580ft 64kts
19-Aug-19 18:02 35.437106 -119.059955 323 509ft 13kts

Navigation Log

Ident Type
Flight plan parsing failed, navigation log unavailable